Paradise, MI

3:24 PM EDT on September 21, 2014 (GMT -0400)
MARITIME | Change Station
CLOSE
Current Station
Personal Weather Station
Location: Cove Island, ON
Elevation: 577 ft
Nearby Weather Stations

Elev 577 ft 45.10 °N, 82.50 °W | Updated 2 hours ago

Overcast
Overcast
61.0 °F
Feels Like 61.0 °F
N
13.0
Wind Variable Wind from WNW

Today
High -- | Low -- °F
--% Chance of Precip.
Yesterday
High -- | Low -- °F
Precip. -- in
7:26 AM 7:40 PM
Waning Crescent, 6% visible
Pressure 29.90 in
Visibility 10.0 miles
Clouds Overcast 2000 ft
Dew Point Not available.
Humidity Not available.
Rainfall -999.00 in
Snow Depth Not available.
UV 2 out of 12
Pollen 1.60 out of 12
Ozone Good
PM2.5 Good
Flu Activity Not available.
METAR KERY 211914Z AUTO 34017G25KT 10SM OVC020 08/03 A2990 RMK AO2 T00750028

More Conditions Fewer Conditions

Pressure 29.90 in
Visibility 10.0 miles
Clouds Overcast 2000 ft
Dew Point Not available.
Humidity Not available.
Rainfall -999.00 in
Snow Depth Not available.
UV 2 out of 12
Pollen 1.60 out of 12
Ozone Good
PM2.5 Good
Flu Activity Not available.
METAR KERY 211914Z AUTO 34017G25KT 10SM OVC020 08/03 A2990 RMK AO2 T00750028

More Conditions Fewer Conditions

Nowcast | as of 3:00 PM EDT on September 21, 2014

At 4 PM...cloudy. Temperature 50. North winds 14 mph. At 6 PM...mostly cloudy. Temperature 48. North winds 14 mph. At 8 PM...mostly cloudy. Temperature 46. North winds 13 mph. At 10 PM...mostly cloudy. Temperature 45. North winds 9 mph.

×

10-Day Weather Forecast

Almanac

Astronomy

Sep. 21, 2014 Rise Set
Actual Time 7:26 AM EDT 7:40 PM EDT
Civil Twilight 6:56 AM EDT 8:11 PM EDT
Nautical Twilight 6:20 AM EDT 8:46 PM EDT
Astronomical Twilight 5:43 AM EDT 9:23 PM EDT
Moon 4:52 AM EDT 6:22 PM EDT
Length of Visible Light 13h 14m
Length of Day
12h 14m
Tomorrow will be 3m 19s shorter.
Waning Crescent, 6% of the Moon is Illuminated
Today
Waning Crescent
Sep 24
New
Oct 1
First Quarter
Oct 8
Full
Oct 15
Last Quarter

Today's Extremes

State Highs State Lows

Community

WunderPhotos

Upload Photos

1,755,226 photos uploaded!

Nearby

Air Quality

  Air Quality AQ Index Pollutant
Yesterday Good
OZONE
Yesterday Good
PM2.5
Current Good
PM2.5
Current Good
OZONE
Sunday Good
OZONE
Sunday Good
PM2.5
Monday Good
OZONE
Monday Good
PM2.5

Snow Depth

Station Depth Elevation
No new snow has been reported.

Earthquake Activity

City Distance Mag. Time & Date
No recent earthquake activity has been reported nearby.
Minimum magnitude displayed is 2.5.

Coastal Water Temperatures

Place Temperature
S W Pier, MI 57.9 °F
Little Rapids, MI 57.0 °F
Rock Cut, MI 57.9 °F
West Neebish, MI 57.0 °F

Nearby Weather Stations